sensor_id;sensor_type;location;lat;lon;timestamp;P1;durP1;ratioP1;P2;durP2;ratioP2
545;SDS011;259;53.304;9.816;2023-12-04T00:00:35;4.70;;;4.30;;
545;SDS011;259;53.304;9.816;2023-12-04T00:03:01;4.50;;;4.10;;
545;SDS011;259;53.304;9.816;2023-12-04T00:05:26;4.90;;;4.50;;
545;SDS011;259;53.304;9.816;2023-12-04T00:07:52;4.53;;;4.17;;
545;SDS011;259;53.304;9.816;2023-12-04T00:10:18;4.30;;;3.90;;
545;SDS011;259;53.304;9.816;2023-12-04T00:12:43;4.67;;;4.27;;
545;SDS011;259;53.304;9.816;2023-12-04T00:15:09;4.50;;;4.10;;
545;SDS011;259;53.304;9.816;2023-12-04T00:17:35;4.63;;;4.13;;
545;SDS011;259;53.304;9.816;2023-12-04T00:20:05;4.70;;;4.30;;
545;SDS011;259;53.304;9.816;2023-12-04T00:22:32;3.93;;;3.63;;
545;SDS011;259;53.304;9.816;2023-12-04T00:24:57;4.23;;;3.83;;
545;SDS011;259;53.304;9.816;2023-12-04T00:27:23;4.83;;;4.33;;
545;SDS011;259;53.304;9.816;2023-12-04T00:29:52;4.80;;;4.40;;
545;SDS011;259;53.304;9.816;2023-12-04T00:32:18;4.60;;;4.20;;
545;SDS011;259;53.304;9.816;2023-12-04T00:34:43;4.20;;;3.90;;
545;SDS011;259;53.304;9.816;2023-12-04T00:37:09;4.23;;;3.83;;
545;SDS011;259;53.304;9.816;2023-12-04T00:39:35;4.80;;;4.40;;
545;SDS011;259;53.304;9.816;2023-12-04T00:42:00;4.50;;;4.10;;
545;SDS011;259;53.304;9.816;2023-12-04T00:44:26;4.70;;;4.30;;
545;SDS011;259;53.304;9.816;2023-12-04T00:46:52;4.73;;;4.33;;
545;SDS011;259;53.304;9.816;2023-12-04T00:49:18;4.60;;;4.20;;
545;SDS011;259;53.304;9.816;2023-12-04T00:51:43;5.20;;;4.60;;
545;SDS011;259;53.304;9.816;2023-12-04T00:54:10;4.27;;;3.87;;
545;SDS011;259;53.304;9.816;2023-12-04T00:56:39;4.80;;;4.33;;
545;SDS011;259;53.304;9.816;2023-12-04T00:59:07;4.73;;;4.40;;
545;SDS011;259;53.304;9.816;2023-12-04T01:01:35;4.20;;;3.80;;
545;SDS011;259;53.304;9.816;2023-12-04T01:04:01;4.73;;;4.33;;
545;SDS011;259;53.304;9.816;2023-12-04T01:06:27;4.90;;;4.50;;
545;SDS011;259;53.304;9.816;2023-12-04T01:08:54;4.80;;;4.00;;
545;SDS011;259;53.304;9.816;2023-12-04T01:11:21;4.30;;;4.00;;
545;SDS011;259;53.304;9.816;2023-12-04T01:13:47;4.83;;;4.43;;
545;SDS011;259;53.304;9.816;2023-12-04T01:16:14;5.57;;;4.40;;
545;SDS011;259;53.304;9.816;2023-12-04T01:18:40;4.57;;;4.17;;
545;SDS011;259;53.304;9.816;2023-12-04T01:21:07;4.37;;;3.97;;
545;SDS011;259;53.304;9.816;2023-12-04T01:23:36;4.80;;;4.40;;
545;SDS011;259;53.304;9.816;2023-12-04T01:26:02;4.70;;;4.20;;
545;SDS011;259;53.304;9.816;2023-12-04T01:28:29;5.00;;;4.60;;
545;SDS011;259;53.304;9.816;2023-12-04T01:30:55;4.07;;;3.77;;
545;SDS011;259;53.304;9.816;2023-12-04T01:33:21;4.50;;;4.20;;
545;SDS011;259;53.304;9.816;2023-12-04T01:35:47;4.80;;;4.40;;
545;SDS011;259;53.304;9.816;2023-12-04T01:38:13;4.83;;;4.40;;
545;SDS011;259;53.304;9.816;2023-12-04T01:40:38;4.90;;;4.40;;
545;SDS011;259;53.304;9.816;2023-12-04T01:43:04;4.83;;;4.40;;
545;SDS011;259;53.304;9.816;2023-12-04T01:45:30;4.57;;;4.17;;
545;SDS011;259;53.304;9.816;2023-12-04T01:47:56;5.10;;;4.63;;
545;SDS011;259;53.304;9.816;2023-12-04T01:50:23;4.40;;;4.00;;
545;SDS011;259;53.304;9.816;2023-12-04T01:52:49;4.23;;;3.83;;
545;SDS011;259;53.304;9.816;2023-12-04T01:55:17;5.40;;;4.17;;
545;SDS011;259;53.304;9.816;2023-12-04T01:57:43;4.73;;;4.33;;
545;SDS011;259;53.304;9.816;2023-12-04T02:00:09;4.37;;;3.97;;
545;SDS011;259;53.304;9.816;2023-12-04T02:02:40;5.50;;;5.00;;
545;SDS011;259;53.304;9.816;2023-12-04T02:05:08;4.53;;;4.13;;
545;SDS011;259;53.304;9.816;2023-12-04T02:07:36;4.63;;;4.23;;
545;SDS011;259;53.304;9.816;2023-12-04T02:10:04;4.20;;;3.80;;
545;SDS011;259;53.304;9.816;2023-12-04T02:12:31;4.70;;;3.60;;
545;SDS011;259;53.304;9.816;2023-12-04T02:14:57;4.47;;;4.07;;
545;SDS011;259;53.304;9.816;2023-12-04T02:17:23;4.10;;;3.70;;
545;SDS011;259;53.304;9.816;2023-12-04T02:19:51;3.43;;;3.13;;
545;SDS011;259;53.304;9.816;2023-12-04T02:22:18;4.60;;;4.20;;
545;SDS011;259;53.304;9.816;2023-12-04T02:24:44;4.17;;;3.77;;
545;SDS011;259;53.304;9.816;2023-12-04T02:27:32;4.60;;;4.20;;
545;SDS011;259;53.304;9.816;2023-12-04T02:30:04;3.90;;;3.60;;
545;SDS011;259;53.304;9.816;2023-12-04T02:32:33;3.83;;;3.53;;
545;SDS011;259;53.304;9.816;2023-12-04T02:35:04;4.00;;;3.70;;
545;SDS011;259;53.304;9.816;2023-12-04T02:37:31;4.40;;;4.00;;
545;SDS011;259;53.304;9.816;2023-12-04T02:39:58;4.40;;;3.90;;
545;SDS011;259;53.304;9.816;2023-12-04T02:42:24;4.87;;;4.47;;
545;SDS011;259;53.304;9.816;2023-12-04T02:44:50;4.43;;;4.03;;
545;SDS011;259;53.304;9.816;2023-12-04T02:47:17;5.00;;;4.50;;
545;SDS011;259;53.304;9.816;2023-12-04T02:49:43;4.83;;;4.43;;
545;SDS011;259;53.304;9.816;2023-12-04T02:52:09;3.90;;;3.60;;
545;SDS011;259;53.304;9.816;2023-12-04T02:54:34;4.40;;;4.00;;
545;SDS011;259;53.304;9.816;2023-12-04T02:57:01;4.03;;;3.70;;
545;SDS011;259;53.304;9.816;2023-12-04T02:59:26;4.10;;;3.70;;
545;SDS011;259;53.304;9.816;2023-12-04T03:01:52;4.20;;;3.63;;
545;SDS011;259;53.304;9.816;2023-12-04T03:04:21;4.83;;;4.43;;
545;SDS011;259;53.304;9.816;2023-12-04T03:06:47;4.93;;;4.23;;
545;SDS011;259;53.304;9.816;2023-12-04T03:09:12;4.57;;;4.17;;
545;SDS011;259;53.304;9.816;2023-12-04T03:11:41;3.83;;;3.53;;
545;SDS011;259;53.304;9.816;2023-12-04T03:14:07;4.00;;;3.70;;
545;SDS011;259;53.304;9.816;2023-12-04T03:16:33;4.07;;;3.73;;
545;SDS011;259;53.304;9.816;2023-12-04T03:18:58;3.80;;;3.50;;
545;SDS011;259;53.304;9.816;2023-12-04T03:21:24;4.13;;;3.73;;
545;SDS011;259;53.304;9.816;2023-12-04T03:23:50;4.73;;;4.33;;
545;SDS011;259;53.304;9.816;2023-12-04T03:26:16;4.63;;;4.23;;
545;SDS011;259;53.304;9.816;2023-12-04T03:28:42;4.40;;;4.00;;
545;SDS011;259;53.304;9.816;2023-12-04T03:31:07;3.73;;;3.43;;
545;SDS011;259;53.304;9.816;2023-12-04T03:33:33;4.53;;;4.13;;
545;SDS011;259;53.304;9.816;2023-12-04T03:35:59;3.87;;;3.57;;
545;SDS011;259;53.304;9.816;2023-12-04T03:38:25;3.60;;;3.30;;
545;SDS011;259;53.304;9.816;2023-12-04T03:40:51;4.27;;;3.87;;
545;SDS011;259;53.304;9.816;2023-12-04T03:43:17;4.30;;;3.93;;
545;SDS011;259;53.304;9.816;2023-12-04T03:45:42;3.77;;;3.47;;
545;SDS011;259;53.304;9.816;2023-12-04T03:48:08;4.50;;;4.10;;
545;SDS011;259;53.304;9.816;2023-12-04T03:50:34;4.23;;;3.80;;
545;SDS011;259;53.304;9.816;2023-12-04T03:52:59;3.90;;;3.60;;
545;SDS011;259;53.304;9.816;2023-12-04T03:55:25;4.23;;;3.63;;
545;SDS011;259;53.304;9.816;2023-12-04T03:57:51;3.30;;;3.00;;
545;SDS011;259;53.304;9.816;2023-12-04T04:00:18;4.00;;;3.60;;
545;SDS011;259;53.304;9.816;2023-12-04T04:02:44;4.20;;;3.70;;
545;SDS011;259;53.304;9.816;2023-12-04T04:05:10;3.53;;;3.23;;
545;SDS011;259;53.304;9.816;2023-12-04T04:07:36;3.37;;;3.07;;
545;SDS011;259;53.304;9.816;2023-12-04T04:10:02;3.30;;;3.00;;
545;SDS011;259;53.304;9.816;2023-12-04T04:12:29;3.80;;;3.50;;
545;SDS011;259;53.304;9.816;2023-12-04T04:14:55;3.63;;;3.30;;
545;SDS011;259;53.304;9.816;2023-12-04T04:17:22;3.30;;;3.00;;
545;SDS011;259;53.304;9.816;2023-12-04T04:19:50;3.03;;;2.73;;
545;SDS011;259;53.304;9.816;2023-12-04T04:22:16;3.33;;;3.10;;
545;SDS011;259;53.304;9.816;2023-12-04T04:24:42;3.20;;;2.90;;
545;SDS011;259;53.304;9.816;2023-12-04T04:27:08;3.70;;;3.07;;
545;SDS011;259;53.304;9.816;2023-12-04T04:29:33;2.93;;;2.73;;
545;SDS011;259;53.304;9.816;2023-12-04T04:31:59;3.47;;;3.17;;
545;SDS011;259;53.304;9.816;2023-12-04T04:34:25;3.23;;;3.00;;
545;SDS011;259;53.304;9.816;2023-12-04T04:36:50;4.23;;;3.90;;
545;SDS011;259;53.304;9.816;2023-12-04T04:39:16;3.60;;;3.30;;
545;SDS011;259;53.304;9.816;2023-12-04T04:41:42;4.07;;;3.70;;
545;SDS011;259;53.304;9.816;2023-12-04T04:44:09;3.50;;;3.20;;
545;SDS011;259;53.304;9.816;2023-12-04T04:46:34;2.97;;;2.77;;
545;SDS011;259;53.304;9.816;2023-12-04T04:49:00;3.33;;;2.83;;
545;SDS011;259;53.304;9.816;2023-12-04T04:51:28;3.20;;;2.90;;
545;SDS011;259;53.304;9.816;2023-12-04T04:53:56;2.83;;;2.63;;
545;SDS011;259;53.304;9.816;2023-12-04T04:56:22;3.43;;;3.13;;
545;SDS011;259;53.304;9.816;2023-12-04T04:58:47;3.60;;;3.30;;
545;SDS011;259;53.304;9.816;2023-12-04T05:01:14;3.50;;;3.20;;
545;SDS011;259;53.304;9.816;2023-12-04T05:03:40;3.37;;;3.10;;
545;SDS011;259;53.304;9.816;2023-12-04T05:06:05;3.07;;;2.87;;
545;SDS011;259;53.304;9.816;2023-12-04T05:08:31;2.80;;;2.60;;
545;SDS011;259;53.304;9.816;2023-12-04T05:10:57;3.10;;;2.90;;
545;SDS011;259;53.304;9.816;2023-12-04T05:13:23;3.30;;;3.00;;
545;SDS011;259;53.304;9.816;2023-12-04T05:15:48;3.87;;;3.57;;
545;SDS011;259;53.304;9.816;2023-12-04T05:18:14;4.07;;;3.67;;
545;SDS011;259;53.304;9.816;2023-12-04T05:20:40;3.80;;;3.40;;
545;SDS011;259;53.304;9.816;2023-12-04T05:23:05;3.57;;;3.27;;
545;SDS011;259;53.304;9.816;2023-12-04T05:25:31;3.40;;;3.10;;
545;SDS011;259;53.304;9.816;2023-12-04T05:27:57;3.30;;;3.00;;
545;SDS011;259;53.304;9.816;2023-12-04T05:30:22;3.43;;;2.57;;
545;SDS011;259;53.304;9.816;2023-12-04T05:32:48;3.93;;;3.60;;
545;SDS011;259;53.304;9.816;2023-12-04T05:35:15;4.10;;;3.40;;
545;SDS011;259;53.304;9.816;2023-12-04T05:37:41;3.53;;;3.23;;
545;SDS011;259;53.304;9.816;2023-12-04T05:40:08;3.40;;;3.10;;
545;SDS011;259;53.304;9.816;2023-12-04T05:42:36;3.53;;;3.23;;
545;SDS011;259;53.304;9.816;2023-12-04T05:45:02;5.10;;;3.10;;
545;SDS011;259;53.304;9.816;2023-12-04T05:47:28;3.47;;;3.17;;
545;SDS011;259;53.304;9.816;2023-12-04T05:49:54;2.70;;;2.50;;
545;SDS011;259;53.304;9.816;2023-12-04T05:52:20;2.90;;;2.70;;
545;SDS011;259;53.304;9.816;2023-12-04T05:54:45;3.10;;;2.80;;
545;SDS011;259;53.304;9.816;2023-12-04T05:57:11;4.03;;;3.73;;
545;SDS011;259;53.304;9.816;2023-12-04T05:59:37;3.50;;;3.23;;
545;SDS011;259;53.304;9.816;2023-12-04T06:02:02;4.47;;;2.77;;
545;SDS011;259;53.304;9.816;2023-12-04T06:04:28;3.23;;;2.93;;
545;SDS011;259;53.304;9.816;2023-12-04T06:06:54;3.33;;;3.03;;
545;SDS011;259;53.304;9.816;2023-12-04T06:09:20;3.07;;;2.87;;
545;SDS011;259;53.304;9.816;2023-12-04T06:11:45;3.20;;;2.90;;
545;SDS011;259;53.304;9.816;2023-12-04T06:14:11;3.60;;;3.30;;
545;SDS011;259;53.304;9.816;2023-12-04T06:16:37;3.30;;;3.00;;
545;SDS011;259;53.304;9.816;2023-12-04T06:19:02;13.50;;;8.63;;
545;SDS011;259;53.304;9.816;2023-12-04T06:21:31;11.10;;;10.20;;
545;SDS011;259;53.304;9.816;2023-12-04T06:23:57;7.57;;;6.80;;
545;SDS011;259;53.304;9.816;2023-12-04T06:26:23;7.07;;;6.30;;
545;SDS011;259;53.304;9.816;2023-12-04T06:28:49;5.80;;;5.30;;
545;SDS011;259;53.304;9.816;2023-12-04T06:31:15;8.47;;;5.50;;
545;SDS011;259;53.304;9.816;2023-12-04T06:33:42;8.17;;;5.73;;
545;SDS011;259;53.304;9.816;2023-12-04T06:36:08;6.07;;;5.57;;
545;SDS011;259;53.304;9.816;2023-12-04T06:38:38;5.57;;;5.10;;
545;SDS011;259;53.304;9.816;2023-12-04T06:41:06;4.80;;;4.23;;
545;SDS011;259;53.304;9.816;2023-12-04T06:43:33;4.67;;;4.27;;
545;SDS011;259;53.304;9.816;2023-12-04T06:45:59;4.93;;;4.23;;
545;SDS011;259;53.304;9.816;2023-12-04T06:48:25;3.50;;;3.20;;
545;SDS011;259;53.304;9.816;2023-12-04T06:50:51;3.77;;;3.40;;
545;SDS011;259;53.304;9.816;2023-12-04T06:53:17;2.97;;;2.60;;
545;SDS011;259;53.304;9.816;2023-12-04T06:55:43;2.73;;;2.53;;
545;SDS011;259;53.304;9.816;2023-12-04T06:58:09;2.80;;;2.60;;
545;SDS011;259;53.304;9.816;2023-12-04T07:00:35;3.10;;;2.80;;
545;SDS011;259;53.304;9.816;2023-12-04T07:03:00;2.77;;;2.40;;
545;SDS011;259;53.304;9.816;2023-12-04T07:05:26;2.70;;;2.50;;
545;SDS011;259;53.304;9.816;2023-12-04T07:07:52;2.20;;;2.10;;
545;SDS011;259;53.304;9.816;2023-12-04T07:10:17;2.40;;;2.20;;
545;SDS011;259;53.304;9.816;2023-12-04T07:12:43;4.23;;;2.37;;
545;SDS011;259;53.304;9.816;2023-12-04T07:15:10;3.17;;;2.30;;
545;SDS011;259;53.304;9.816;2023-12-04T07:17:36;2.20;;;2.00;;
545;SDS011;259;53.304;9.816;2023-12-04T07:20:03;2.63;;;2.43;;
545;SDS011;259;53.304;9.816;2023-12-04T07:22:31;9.20;;;2.87;;
545;SDS011;259;53.304;9.816;2023-12-04T07:24:57;14.57;;;4.57;;
545;SDS011;259;53.304;9.816;2023-12-04T07:27:23;6.47;;;3.57;;
545;SDS011;259;53.304;9.816;2023-12-04T07:29:49;9.77;;;3.70;;
545;SDS011;259;53.304;9.816;2023-12-04T07:32:15;8.90;;;3.10;;
545;SDS011;259;53.304;9.816;2023-12-04T07:34:41;8.00;;;3.60;;
545;SDS011;259;53.304;9.816;2023-12-04T07:37:06;11.37;;;3.20;;
545;SDS011;259;53.304;9.816;2023-12-04T07:39:32;14.47;;;4.27;;
545;SDS011;259;53.304;9.816;2023-12-04T07:41:58;11.57;;;4.50;;
545;SDS011;259;53.304;9.816;2023-12-04T07:44:23;11.17;;;4.20;;
545;SDS011;259;53.304;9.816;2023-12-04T07:46:49;11.03;;;3.30;;
545;SDS011;259;53.304;9.816;2023-12-04T07:49:15;7.67;;;3.10;;
545;SDS011;259;53.304;9.816;2023-12-04T07:51:41;6.63;;;3.10;;
545;SDS011;259;53.304;9.816;2023-12-04T07:54:07;13.20;;;3.70;;
545;SDS011;259;53.304;9.816;2023-12-04T07:56:32;8.30;;;3.20;;
545;SDS011;259;53.304;9.816;2023-12-04T07:58:58;7.93;;;3.10;;
545;SDS011;259;53.304;9.816;2023-12-04T08:01:24;7.80;;;3.23;;
545;SDS011;259;53.304;9.816;2023-12-04T08:03:49;10.77;;;3.87;;
545;SDS011;259;53.304;9.816;2023-12-04T08:06:15;8.57;;;3.13;;
545;SDS011;259;53.304;9.816;2023-12-04T08:08:43;9.17;;;3.10;;
545;SDS011;259;53.304;9.816;2023-12-04T08:11:10;13.10;;;3.00;;
545;SDS011;259;53.304;9.816;2023-12-04T08:13:38;11.33;;;3.33;;
545;SDS011;259;53.304;9.816;2023-12-04T08:16:04;11.07;;;3.60;;
545;SDS011;259;53.304;9.816;2023-12-04T08:18:31;5.33;;;2.40;;
545;SDS011;259;53.304;9.816;2023-12-04T08:20:59;7.90;;;3.93;;
545;SDS011;259;53.304;9.816;2023-12-04T08:23:26;8.43;;;2.53;;
545;SDS011;259;53.304;9.816;2023-12-04T08:25:51;6.80;;;2.90;;
545;SDS011;259;53.304;9.816;2023-12-04T08:28:17;12.57;;;2.87;;
545;SDS011;259;53.304;9.816;2023-12-04T08:30:43;5.03;;;2.40;;
545;SDS011;259;53.304;9.816;2023-12-04T08:33:08;4.53;;;2.83;;
545;SDS011;259;53.304;9.816;2023-12-04T08:35:34;9.10;;;3.00;;
545;SDS011;259;53.304;9.816;2023-12-04T08:38:00;6.87;;;3.40;;
545;SDS011;259;53.304;9.816;2023-12-04T08:40:26;8.20;;;2.43;;
545;SDS011;259;53.304;9.816;2023-12-04T08:42:52;2.43;;;2.10;;
545;SDS011;259;53.304;9.816;2023-12-04T08:45:18;6.50;;;2.60;;
545;SDS011;259;53.304;9.816;2023-12-04T08:47:44;5.60;;;2.80;;
545;SDS011;259;53.304;9.816;2023-12-04T08:50:09;8.80;;;3.13;;
545;SDS011;259;53.304;9.816;2023-12-04T08:52:35;12.70;;;3.43;;
545;SDS011;259;53.304;9.816;2023-12-04T08:55:01;6.60;;;2.50;;
545;SDS011;259;53.304;9.816;2023-12-04T08:57:27;4.53;;;2.50;;
545;SDS011;259;53.304;9.816;2023-12-04T08:59:53;14.20;;;3.13;;
545;SDS011;259;53.304;9.816;2023-12-04T09:02:18;23.93;;;3.20;;
545;SDS011;259;53.304;9.816;2023-12-04T09:04:44;5.67;;;2.83;;
545;SDS011;259;53.304;9.816;2023-12-04T09:07:10;10.27;;;3.30;;
545;SDS011;259;53.304;9.816;2023-12-04T09:09:35;6.00;;;2.90;;
545;SDS011;259;53.304;9.816;2023-12-04T09:12:02;11.97;;;6.10;;
545;SDS011;259;53.304;9.816;2023-12-04T09:14:28;7.80;;;7.00;;
545;SDS011;259;53.304;9.816;2023-12-04T09:16:54;15.80;;;6.72;;
545;SDS011;259;53.304;9.816;2023-12-04T09:19:20;11.10;;;5.00;;
545;SDS011;259;53.304;9.816;2023-12-04T09:21:45;9.30;;;5.67;;
545;SDS011;259;53.304;9.816;2023-12-04T09:24:11;16.60;;;5.20;;
545;SDS011;259;53.304;9.816;2023-12-04T09:26:38;10.60;;;6.03;;
545;SDS011;259;53.304;9.816;2023-12-04T09:29:04;10.23;;;5.30;;
545;SDS011;259;53.304;9.816;2023-12-04T09:31:30;16.10;;;6.00;;
545;SDS011;259;53.304;9.816;2023-12-04T09:33:55;14.77;;;5.50;;
545;SDS011;259;53.304;9.816;2023-12-04T09:36:21;13.63;;;6.20;;
545;SDS011;259;53.304;9.816;2023-12-04T09:38:47;28.97;;;8.07;;
545;SDS011;259;53.304;9.816;2023-12-04T09:41:12;24.17;;;6.90;;
545;SDS011;259;53.304;9.816;2023-12-04T09:43:41;15.83;;;6.20;;
545;SDS011;259;53.304;9.816;2023-12-04T09:46:08;19.30;;;5.53;;
545;SDS011;259;53.304;9.816;2023-12-04T09:48:35;27.53;;;5.60;;
545;SDS011;259;53.304;9.816;2023-12-04T09:51:02;16.73;;;5.47;;
545;SDS011;259;53.304;9.816;2023-12-04T09:53:28;15.27;;;5.20;;
545;SDS011;259;53.304;9.816;2023-12-04T09:55:57;14.27;;;5.80;;
545;SDS011;259;53.304;9.816;2023-12-04T09:58:25;21.53;;;9.13;;
545;SDS011;259;53.304;9.816;2023-12-04T10:00:57;21.63;;;8.43;;
545;SDS011;259;53.304;9.816;2023-12-04T10:03:25;22.83;;;7.40;;
545;SDS011;259;53.304;9.816;2023-12-04T10:05:50;19.87;;;7.63;;
545;SDS011;259;53.304;9.816;2023-12-04T10:08:16;12.40;;;6.50;;
545;SDS011;259;53.304;9.816;2023-12-04T10:10:42;13.93;;;6.43;;
545;SDS011;259;53.304;9.816;2023-12-04T10:13:08;15.33;;;7.40;;
545;SDS011;259;53.304;9.816;2023-12-04T10:15:35;13.37;;;5.70;;
545;SDS011;259;53.304;9.816;2023-12-04T10:18:25;12.23;;;5.53;;
545;SDS011;259;53.304;9.816;2023-12-04T10:20:54;10.10;;;5.87;;
545;SDS011;259;53.304;9.816;2023-12-04T10:23:20;17.10;;;6.30;;
545;SDS011;259;53.304;9.816;2023-12-04T10:25:46;11.10;;;5.40;;
545;SDS011;259;53.304;9.816;2023-12-04T10:28:16;5.47;;;4.93;;
545;SDS011;259;53.304;9.816;2023-12-04T10:30:43;8.73;;;5.97;;
545;SDS011;259;53.304;9.816;2023-12-04T10:33:10;10.00;;;5.70;;
545;SDS011;259;53.304;9.816;2023-12-04T10:35:37;11.93;;;5.10;;
545;SDS011;259;53.304;9.816;2023-12-04T10:38:03;5.03;;;4.47;;
545;SDS011;259;53.304;9.816;2023-12-04T10:40:34;9.50;;;4.70;;
545;SDS011;259;53.304;9.816;2023-12-04T10:43:09;9.07;;;4.23;;
545;SDS011;259;53.304;9.816;2023-12-04T10:45:43;7.87;;;4.77;;
545;SDS011;259;53.304;9.816;2023-12-04T10:48:12;5.63;;;4.23;;
545;SDS011;259;53.304;9.816;2023-12-04T10:50:40;7.33;;;4.90;;
545;SDS011;259;53.304;9.816;2023-12-04T10:53:10;12.13;;;4.43;;
545;SDS011;259;53.304;9.816;2023-12-04T10:55:37;8.00;;;4.73;;
545;SDS011;259;53.304;9.816;2023-12-04T10:58:05;13.87;;;5.50;;
545;SDS011;259;53.304;9.816;2023-12-04T11:00:34;10.90;;;4.97;;
545;SDS011;259;53.304;9.816;2023-12-04T11:03:05;9.40;;;4.83;;
545;SDS011;259;53.304;9.816;2023-12-04T11:05:38;9.83;;;4.50;;
545;SDS011;259;53.304;9.816;2023-12-04T11:08:11;6.60;;;4.67;;
545;SDS011;259;53.304;9.816;2023-12-04T11:10:45;7.47;;;4.77;;
545;SDS011;259;53.304;9.816;2023-12-04T11:13:21;9.27;;;8.03;;
545;SDS011;259;53.304;9.816;2023-12-04T11:15:53;7.37;;;6.47;;
545;SDS011;259;53.304;9.816;2023-12-04T11:18:26;8.13;;;6.50;;
545;SDS011;259;53.304;9.816;2023-12-04T11:20:56;6.10;;;5.60;;
545;SDS011;259;53.304;9.816;2023-12-04T11:23:27;5.57;;;5.00;;
545;SDS011;259;53.304;9.816;2023-12-04T11:25:54;8.90;;;4.73;;
545;SDS011;259;53.304;9.816;2023-12-04T11:28:20;5.70;;;4.53;;
545;SDS011;259;53.304;9.816;2023-12-04T11:30:46;7.30;;;4.17;;
545;SDS011;259;53.304;9.816;2023-12-04T11:33:13;6.10;;;5.33;;
545;SDS011;259;53.304;9.816;2023-12-04T11:35:38;14.00;;;4.97;;
545;SDS011;259;53.304;9.816;2023-12-04T11:38:05;5.70;;;3.70;;
545;SDS011;259;53.304;9.816;2023-12-04T11:40:32;6.83;;;4.27;;
545;SDS011;259;53.304;9.816;2023-12-04T11:42:58;5.80;;;4.80;;
545;SDS011;259;53.304;9.816;2023-12-04T11:45:23;8.63;;;4.00;;
545;SDS011;259;53.304;9.816;2023-12-04T11:50:17;9.75;;;4.38;;
545;SDS011;259;53.304;9.816;2023-12-04T11:52:44;8.53;;;3.80;;
545;SDS011;259;53.304;9.816;2023-12-04T11:55:10;12.13;;;4.50;;
545;SDS011;259;53.304;9.816;2023-12-04T11:57:37;4.43;;;3.50;;
545;SDS011;259;53.304;9.816;2023-12-04T12:00:11;9.70;;;4.80;;
545;SDS011;259;53.304;9.816;2023-12-04T12:03:00;9.23;;;4.03;;
545;SDS011;259;53.304;9.816;2023-12-04T12:05:28;12.40;;;5.07;;
545;SDS011;259;53.304;9.816;2023-12-04T12:07:59;12.73;;;4.40;;
545;SDS011;259;53.304;9.816;2023-12-04T12:10:27;17.97;;;6.37;;
545;SDS011;259;53.304;9.816;2023-12-04T12:12:53;25.37;;;8.00;;
545;SDS011;259;53.304;9.816;2023-12-04T12:15:20;33.70;;;14.33;;
545;SDS011;259;53.304;9.816;2023-12-04T12:17:45;17.77;;;6.93;;
545;SDS011;259;53.304;9.816;2023-12-04T12:20:11;22.37;;;11.70;;
545;SDS011;259;53.304;9.816;2023-12-04T12:22:39;33.00;;;11.30;;
545;SDS011;259;53.304;9.816;2023-12-04T12:25:08;29.30;;;10.80;;
545;SDS011;259;53.304;9.816;2023-12-04T12:27:35;30.23;;;11.03;;
545;SDS011;259;53.304;9.816;2023-12-04T12:30:02;24.43;;;8.87;;
545;SDS011;259;53.304;9.816;2023-12-04T12:32:30;27.87;;;8.87;;
545;SDS011;259;53.304;9.816;2023-12-04T12:34:56;22.37;;;8.30;;
545;SDS011;259;53.304;9.816;2023-12-04T12:37:22;24.47;;;7.97;;
545;SDS011;259;53.304;9.816;2023-12-04T12:39:48;20.13;;;7.67;;
545;SDS011;259;53.304;9.816;2023-12-04T12:42:25;22.17;;;7.10;;
545;SDS011;259;53.304;9.816;2023-12-04T12:44:53;10.93;;;6.53;;
545;SDS011;259;53.304;9.816;2023-12-04T12:47:20;11.37;;;6.20;;
545;SDS011;259;53.304;9.816;2023-12-04T12:49:46;16.20;;;6.83;;
545;SDS011;259;53.304;9.816;2023-12-04T12:52:12;11.43;;;5.90;;
545;SDS011;259;53.304;9.816;2023-12-04T12:54:38;11.23;;;5.57;;
545;SDS011;259;53.304;9.816;2023-12-04T12:57:08;10.63;;;5.30;;
545;SDS011;259;53.304;9.816;2023-12-04T12:59:36;27.30;;;7.00;;
545;SDS011;259;53.304;9.816;2023-12-04T13:02:04;9.30;;;5.07;;
545;SDS011;259;53.304;9.816;2023-12-04T13:04:38;12.37;;;4.80;;
545;SDS011;259;53.304;9.816;2023-12-04T13:07:07;12.43;;;4.83;;
545;SDS011;259;53.304;9.816;2023-12-04T13:09:34;9.37;;;5.03;;
545;SDS011;259;53.304;9.816;2023-12-04T13:12:04;8.73;;;4.27;;
545;SDS011;259;53.304;9.816;2023-12-04T13:14:31;8.87;;;4.10;;
545;SDS011;259;53.304;9.816;2023-12-04T13:16:59;6.00;;;4.80;;
545;SDS011;259;53.304;9.816;2023-12-04T13:19:26;8.23;;;4.67;;
545;SDS011;259;53.304;9.816;2023-12-04T13:21:52;7.53;;;3.90;;
545;SDS011;259;53.304;9.816;2023-12-04T13:24:17;6.80;;;4.30;;
545;SDS011;259;53.304;9.816;2023-12-04T13:26:43;7.03;;;4.07;;
545;SDS011;259;53.304;9.816;2023-12-04T13:29:10;5.10;;;4.60;;
545;SDS011;259;53.304;9.816;2023-12-04T13:31:36;6.90;;;3.70;;
545;SDS011;259;53.304;9.816;2023-12-04T13:34:02;5.03;;;3.47;;
545;SDS011;259;53.304;9.816;2023-12-04T13:36:31;6.90;;;4.10;;
545;SDS011;259;53.304;9.816;2023-12-04T13:38:58;6.60;;;3.37;;
545;SDS011;259;53.304;9.816;2023-12-04T13:41:24;7.33;;;4.17;;
545;SDS011;259;53.304;9.816;2023-12-04T13:44:08;5.33;;;3.77;;
545;SDS011;259;53.304;9.816;2023-12-04T13:46:34;6.90;;;3.90;;
545;SDS011;259;53.304;9.816;2023-12-04T13:48:59;7.60;;;3.90;;
545;SDS011;259;53.304;9.816;2023-12-04T13:51:25;4.27;;;3.33;;
545;SDS011;259;53.304;9.816;2023-12-04T13:53:51;6.83;;;3.33;;
545;SDS011;259;53.304;9.816;2023-12-04T13:56:21;4.63;;;3.00;;
545;SDS011;259;53.304;9.816;2023-12-04T13:59:07;3.00;;;2.73;;
545;SDS011;259;53.304;9.816;2023-12-04T14:01:33;5.57;;;3.37;;
545;SDS011;259;53.304;9.816;2023-12-04T14:03:59;3.87;;;3.00;;
545;SDS011;259;53.304;9.816;2023-12-04T14:06:27;2.87;;;2.37;;
545;SDS011;259;53.304;9.816;2023-12-04T14:08:53;6.23;;;3.83;;
545;SDS011;259;53.304;9.816;2023-12-04T14:11:19;5.57;;;2.80;;
545;SDS011;259;53.304;9.816;2023-12-04T14:13:45;2.80;;;2.60;;
545;SDS011;259;53.304;9.816;2023-12-04T14:16:11;2.93;;;2.73;;
545;SDS011;259;53.304;9.816;2023-12-04T14:18:36;2.87;;;2.67;;
545;SDS011;259;53.304;9.816;2023-12-04T14:21:02;2.60;;;2.40;;
545;SDS011;259;53.304;9.816;2023-12-04T14:23:28;3.27;;;2.50;;
545;SDS011;259;53.304;9.816;2023-12-04T14:25:54;3.10;;;2.80;;
545;SDS011;259;53.304;9.816;2023-12-04T14:28:20;2.27;;;2.10;;
545;SDS011;259;53.304;9.816;2023-12-04T14:30:46;3.60;;;2.63;;
545;SDS011;259;53.304;9.816;2023-12-04T14:33:12;4.20;;;3.37;;
545;SDS011;259;53.304;9.816;2023-12-04T14:35:38;7.20;;;4.77;;
545;SDS011;259;53.304;9.816;2023-12-04T14:38:03;6.53;;;4.33;;
545;SDS011;259;53.304;9.816;2023-12-04T14:40:30;5.63;;;4.00;;
545;SDS011;259;53.304;9.816;2023-12-04T14:42:56;5.80;;;4.07;;
545;SDS011;259;53.304;9.816;2023-12-04T14:45:21;4.27;;;3.87;;
545;SDS011;259;53.304;9.816;2023-12-04T14:47:47;4.80;;;4.13;;
545;SDS011;259;53.304;9.816;2023-12-04T14:50:15;5.40;;;3.50;;
545;SDS011;259;53.304;9.816;2023-12-04T14:52:41;4.60;;;3.50;;
545;SDS011;259;53.304;9.816;2023-12-04T14:55:14;3.13;;;2.90;;
545;SDS011;259;53.304;9.816;2023-12-04T14:57:49;7.93;;;3.13;;
545;SDS011;259;53.304;9.816;2023-12-04T15:00:37;3.20;;;3.00;;
545;SDS011;259;53.304;9.816;2023-12-04T15:03:21;3.50;;;3.20;;
545;SDS011;259;53.304;9.816;2023-12-04T15:06:05;3.27;;;2.97;;
545;SDS011;259;53.304;9.816;2023-12-04T15:08:37;4.90;;;2.77;;
545;SDS011;259;53.304;9.816;2023-12-04T15:11:22;4.60;;;2.60;;
545;SDS011;259;53.304;9.816;2023-12-04T15:14:10;3.73;;;2.70;;
545;SDS011;259;53.304;9.816;2023-12-04T15:16:54;3.47;;;3.27;;
545;SDS011;259;53.304;9.816;2023-12-04T15:19:28;2.90;;;2.70;;
545;SDS011;259;53.304;9.816;2023-12-04T15:22:18;3.00;;;2.80;;
545;SDS011;259;53.304;9.816;2023-12-04T15:24:44;2.90;;;2.70;;
545;SDS011;259;53.304;9.816;2023-12-04T15:27:09;3.10;;;2.73;;
545;SDS011;259;53.304;9.816;2023-12-04T15:29:35;4.40;;;2.57;;
545;SDS011;259;53.304;9.816;2023-12-04T15:32:01;2.67;;;2.47;;
545;SDS011;259;53.304;9.816;2023-12-04T15:34:26;3.27;;;2.90;;
545;SDS011;259;53.304;9.816;2023-12-04T15:36:52;2.60;;;2.40;;
545;SDS011;259;53.304;9.816;2023-12-04T15:39:18;3.27;;;3.07;;
545;SDS011;259;53.304;9.816;2023-12-04T15:41:44;3.50;;;2.93;;
545;SDS011;259;53.304;9.816;2023-12-04T15:44:10;3.00;;;2.80;;